createdAt,value
2018-11-04T00:00:30.388Z,9.40
2018-11-04T00:02:59.230Z,9.40
2018-11-04T00:05:28.088Z,9.40
2018-11-04T00:07:56.918Z,9.30
2018-11-04T00:10:25.740Z,9.30
2018-11-04T00:12:54.616Z,9.30
2018-11-04T00:15:23.434Z,9.40
2018-11-04T00:17:52.263Z,9.40
2018-11-04T00:20:21.162Z,9.40
2018-11-04T00:22:49.975Z,9.40
2018-11-04T00:25:18.917Z,9.50
2018-11-04T00:27:47.730Z,9.50
2018-11-04T00:30:16.683Z,9.50
2018-11-04T00:32:45.488Z,9.60
2018-11-04T00:35:14.422Z,9.60
2018-11-04T00:37:43.203Z,9.50
2018-11-04T00:40:12.060Z,9.40
2018-11-04T00:42:40.842Z,9.40
2018-11-04T00:45:10.141Z,9.50
2018-11-04T00:47:39.765Z,9.40
2018-11-04T00:50:14.444Z,9.30
2018-11-04T00:52:43.694Z,9.20
2018-11-04T00:55:12.994Z,9.20
2018-11-04T00:57:42.116Z,9.20
2018-11-04T01:00:13.893Z,9.20
2018-11-04T01:02:43.395Z,9.20
2018-11-04T01:05:12.231Z,9.20
2018-11-04T01:07:41.154Z,9.20
2018-11-04T01:10:10.929Z,9.20
2018-11-04T01:12:40.056Z,9.10
2018-11-04T01:15:10.503Z,9.10
2018-11-04T01:17:39.926Z,9.10
2018-11-04T01:20:10.621Z,9.10
2018-11-04T01:22:39.402Z,9.10
2018-11-04T01:25:08.333Z,9.10
2018-11-04T01:27:37.139Z,9.10
2018-11-04T01:30:07.837Z,9.30
2018-11-04T01:32:36.966Z,9.20
2018-11-04T01:35:06.301Z,9.20
2018-11-04T01:37:35.153Z,9.20
2018-11-04T01:40:04.152Z,9.20
2018-11-04T01:42:32.977Z,9.10
2018-11-04T01:45:01.882Z,9.10
2018-11-04T01:47:30.748Z,9.00
2018-11-04T01:49:59.568Z,9.00
2018-11-04T01:52:28.371Z,9.10
2018-11-04T01:54:57.274Z,9.10
2018-11-04T01:57:26.224Z,9.10
2018-11-04T01:59:55.118Z,9.10
2018-11-04T02:02:23.990Z,9.00
2018-11-04T02:04:52.866Z,9.00
2018-11-04T02:07:21.729Z,9.10
2018-11-04T02:09:50.648Z,9.10
2018-11-04T02:12:19.514Z,9.10
2018-11-04T02:14:48.395Z,9.00
2018-11-04T02:17:17.254Z,9.10
2018-11-04T02:19:46.173Z,9.10
2018-11-04T02:22:14.998Z,9.10
2018-11-04T02:24:43.883Z,9.10
2018-11-04T02:27:12.755Z,9.20
2018-11-04T02:29:41.621Z,9.20
2018-11-04T02:32:10.620Z,9.10
2018-11-04T02:34:39.463Z,9.20
2018-11-04T02:37:09.239Z,9.40
2018-11-04T02:39:38.101Z,9.40
2018-11-04T02:42:06.924Z,9.40
2018-11-04T02:44:35.805Z,9.40
2018-11-04T02:47:04.728Z,9.40
2018-11-04T02:49:33.509Z,9.40
2018-11-04T02:52:02.441Z,9.40
2018-11-04T02:54:31.206Z,9.40
2018-11-04T02:57:00.083Z,9.20
2018-11-04T02:59:28.954Z,9.20
2018-11-04T03:01:57.979Z,9.20
2018-11-04T03:04:26.745Z,9.10
2018-11-04T03:06:55.662Z,9.00
2018-11-04T03:09:24.506Z,9.00
2018-11-04T03:11:53.372Z,8.90
2018-11-04T03:14:22.205Z,9.00
2018-11-04T03:16:51.106Z,9.00
2018-11-04T03:19:19.983Z,9.00
2018-11-04T03:21:48.762Z,9.00
2018-11-04T03:24:23.485Z,9.00
2018-11-04T03:26:52.330Z,9.00
2018-11-04T03:29:21.211Z,9.00
2018-11-04T03:31:49.972Z,9.00
2018-11-04T03:34:18.979Z,9.00
2018-11-04T03:36:47.833Z,9.00
2018-11-04T03:39:16.639Z,9.00
2018-11-04T03:41:45.518Z,8.90
2018-11-04T03:44:14.418Z,8.90
2018-11-04T03:46:43.215Z,9.00
2018-11-04T03:49:12.054Z,9.00
2018-11-04T03:51:40.932Z,8.90
2018-11-04T03:54:09.789Z,8.90
2018-11-04T03:56:38.585Z,8.90
2018-11-04T03:59:07.873Z,8.80
2018-11-04T04:01:36.699Z,8.80
2018-11-04T04:04:10.785Z,8.90
2018-11-04T04:06:39.721Z,8.80
2018-11-04T04:09:09.538Z,8.80
2018-11-04T04:11:38.580Z,9.00
2018-11-04T04:14:08.015Z,9.00
2018-11-04T04:16:36.891Z,9.00
2018-11-04T04:19:05.834Z,9.10
2018-11-04T04:21:34.629Z,9.00
2018-11-04T04:24:03.466Z,9.00
2018-11-04T04:26:32.310Z,9.00
2018-11-04T04:29:01.181Z,9.00
2018-11-04T04:31:30.029Z,8.90
2018-11-04T04:33:58.875Z,8.80
2018-11-04T04:36:27.664Z,8.80
2018-11-04T04:38:56.540Z,8.80
2018-11-04T04:41:25.430Z,8.80
2018-11-04T04:43:54.319Z,8.70
2018-11-04T04:46:23.232Z,8.70
2018-11-04T04:48:52.137Z,8.70
2018-11-04T04:51:21.007Z,8.60
2018-11-04T04:53:49.852Z,8.60
2018-11-04T04:56:18.778Z,8.60
2018-11-04T04:58:47.822Z,8.60
2018-11-04T05:01:16.683Z,8.60
2018-11-04T05:03:45.483Z,8.60
2018-11-04T05:06:14.435Z,8.50
2018-11-04T05:08:43.242Z,8.60
2018-11-04T05:11:12.111Z,8.60
2018-11-04T05:13:40.903Z,8.70
2018-11-04T05:16:09.739Z,8.70
2018-11-04T05:18:38.590Z,8.70
2018-11-04T05:21:07.424Z,8.70
2018-11-04T05:23:36.311Z,8.70
2018-11-04T05:26:05.602Z,8.70
2018-11-04T05:28:34.461Z,8.60
2018-11-04T05:31:03.312Z,8.70
2018-11-04T05:33:32.117Z,8.70
2018-11-04T05:36:01.028Z,8.70
2018-11-04T05:38:29.971Z,8.60
2018-11-04T05:40:58.654Z,8.60
2018-11-04T05:43:27.511Z,8.40
2018-11-04T05:45:56.387Z,8.40
2018-11-04T05:48:25.230Z,8.30
2018-11-04T05:50:54.079Z,8.30
2018-11-04T05:53:22.828Z,8.30
2018-11-04T05:55:51.753Z,8.20
2018-11-04T05:58:20.672Z,8.20
2018-11-04T06:00:49.491Z,8.10
2018-11-04T06:03:18.323Z,8.10
2018-11-04T06:05:47.209Z,8.10
2018-11-04T06:08:16.025Z,8.10
2018-11-04T06:10:44.905Z,8.20
2018-11-04T06:13:14.674Z,8.20
2018-11-04T06:15:43.533Z,8.00
2018-11-04T06:18:12.334Z,8.10
2018-11-04T06:20:41.134Z,8.10
2018-11-04T06:23:09.997Z,8.10
2018-11-04T06:25:38.869Z,8.10
2018-11-04T06:28:07.678Z,8.10
2018-11-04T06:30:36.537Z,8.00
2018-11-04T06:33:05.438Z,8.00
2018-11-04T06:35:34.333Z,8.00
2018-11-04T06:38:03.200Z,8.00
2018-11-04T06:40:32.105Z,8.10
2018-11-04T06:43:01.571Z,8.10
2018-11-04T06:45:30.322Z,8.10
2018-11-04T06:47:59.144Z,8.10
2018-11-04T06:50:27.972Z,8.10
2018-11-04T06:52:56.781Z,8.10
2018-11-04T06:55:25.932Z,8.00
2018-11-04T06:57:54.865Z,8.10
2018-11-04T07:00:23.699Z,8.10
2018-11-04T07:02:52.593Z,8.10
2018-11-04T07:05:21.482Z,8.10
2018-11-04T07:07:50.394Z,8.20
2018-11-04T07:10:19.247Z,8.30
2018-11-04T07:12:48.138Z,8.20
2018-11-04T07:15:16.980Z,8.10
2018-11-04T07:17:45.859Z,8.10
2018-11-04T07:20:14.724Z,8.20
2018-11-04T07:22:43.816Z,8.20
2018-11-04T07:25:13.637Z,8.20
2018-11-04T07:27:44.729Z,8.30
2018-11-04T07:30:15.224Z,8.20
2018-11-04T07:32:45.296Z,8.30
2018-11-04T07:35:14.182Z,8.30
2018-11-04T07:37:43.859Z,8.30
2018-11-04T07:40:12.702Z,8.40
2018-11-04T07:42:41.690Z,8.40
2018-11-04T07:45:10.807Z,8.50
2018-11-04T07:47:40.460Z,8.60
2018-11-04T07:50:13.089Z,8.60
2018-11-04T07:52:45.288Z,8.70
2018-11-04T07:55:14.483Z,8.80
2018-11-04T07:57:44.763Z,8.70
2018-11-04T08:00:15.648Z,8.60
2018-11-04T08:02:45.141Z,8.50
2018-11-04T08:05:14.076Z,8.50
2018-11-04T08:07:42.983Z,8.50
2018-11-04T08:10:13.167Z,8.60
2018-11-04T08:12:43.425Z,8.60
2018-11-04T08:15:13.430Z,8.80
2018-11-04T08:17:43.403Z,8.80
2018-11-04T08:20:12.577Z,8.90
2018-11-04T08:22:41.894Z,8.90
2018-11-04T08:25:11.148Z,8.80
2018-11-04T08:27:40.100Z,8.80
2018-11-04T08:30:09.441Z,8.80
2018-11-04T08:32:40.587Z,8.90
2018-11-04T08:35:09.543Z,9.00
2018-11-04T08:37:38.858Z,9.00
2018-11-04T08:40:08.606Z,9.10
2018-11-04T08:42:37.875Z,9.10
2018-11-04T08:45:08.952Z,9.00
2018-11-04T08:47:37.796Z,9.10
2018-11-04T08:50:08.569Z,9.10
2018-11-04T08:52:37.750Z,9.10
2018-11-04T08:55:07.915Z,9.10
2018-11-04T08:57:36.891Z,9.30
2018-11-04T09:00:08.131Z,9.40
2018-11-04T09:02:38.079Z,9.40
2018-11-04T09:05:09.392Z,9.40
2018-11-04T09:07:38.529Z,9.40
2018-11-04T09:10:12.995Z,9.30
2018-11-04T09:12:42.152Z,9.20
2018-11-04T09:15:12.519Z,9.30
2018-11-04T09:17:42.936Z,9.20
2018-11-04T09:20:13.199Z,9.30
2018-11-04T09:22:43.347Z,9.40
2018-11-04T09:25:15.441Z,9.30
2018-11-04T09:27:44.959Z,9.20
2018-11-04T09:30:16.377Z,9.20
2018-11-04T09:32:45.944Z,9.30
2018-11-04T09:35:14.890Z,9.30
2018-11-04T09:37:43.805Z,9.40
2018-11-04T09:40:13.915Z,9.50
2018-11-04T09:42:42.871Z,9.60
2018-11-04T09:45:11.916Z,9.60
2018-11-04T09:47:40.854Z,9.50
2018-11-04T09:50:11.026Z,9.50
2018-11-04T09:52:40.042Z,9.60
2018-11-04T09:55:12.063Z,9.50
2018-11-04T09:57:41.569Z,9.60
2018-11-04T10:00:12.831Z,9.70
2018-11-04T10:02:41.782Z,9.70
2018-11-04T10:05:11.227Z,9.70
2018-11-04T10:07:40.472Z,9.90
2018-11-04T10:10:11.697Z,10.00
2018-11-04T10:12:41.549Z,10.00
2018-11-04T10:15:10.813Z,10.10
2018-11-04T10:17:40.343Z,10.30
2018-11-04T10:20:10.740Z,10.30
2018-11-04T10:22:39.702Z,10.30
2018-11-04T10:25:09.784Z,10.30
2018-11-04T10:27:39.090Z,10.30
2018-11-04T10:30:11.644Z,10.30
2018-11-04T10:32:42.124Z,10.40
2018-11-04T10:35:12.609Z,10.40
2018-11-04T10:37:42.231Z,10.50
2018-11-04T10:40:11.947Z,10.50
2018-11-04T10:42:41.140Z,10.40
2018-11-04T10:45:11.454Z,10.50
2018-11-04T10:47:40.197Z,10.50
2018-11-04T10:50:10.951Z,10.20
2018-11-04T10:52:39.846Z,10.30
2018-11-04T10:55:10.009Z,10.30
2018-11-04T10:57:39.071Z,10.30
2018-11-04T11:00:15.710Z,10.30
2018-11-04T11:02:45.222Z,10.40
2018-11-04T11:05:14.314Z,10.40
2018-11-04T11:07:43.338Z,10.40
2018-11-04T11:10:12.521Z,10.40
2018-11-04T11:12:41.309Z,10.20
2018-11-04T11:15:11.107Z,10.10
2018-11-04T11:17:40.437Z,10.30
2018-11-04T11:20:10.407Z,10.30
2018-11-04T11:22:39.418Z,10.40
2018-11-04T11:25:08.850Z,10.40
2018-11-04T11:27:37.676Z,10.20
2018-11-04T11:30:06.688Z,10.30
2018-11-04T11:32:35.419Z,10.30
2018-11-04T11:35:04.605Z,10.40
2018-11-04T11:37:33.593Z,10.50
2018-11-04T11:40:02.476Z,10.50
2018-11-04T11:42:31.406Z,10.50
2018-11-04T11:45:00.414Z,10.50
2018-11-04T11:47:29.238Z,10.70
2018-11-04T11:49:58.062Z,10.70
2018-11-04T11:52:27.003Z,10.60
2018-11-04T11:54:56.299Z,10.70
2018-11-04T11:57:25.200Z,10.80
2018-11-04T11:59:54.182Z,10.70
2018-11-04T12:02:23.133Z,10.40
2018-11-04T12:04:52.125Z,10.30
2018-11-04T12:07:20.986Z,10.40
2018-11-04T12:09:50.095Z,10.40
2018-11-04T12:12:18.959Z,10.50
2018-11-04T12:14:47.795Z,10.60
2018-11-04T12:17:16.607Z,10.70
2018-11-04T12:19:45.655Z,10.80
2018-11-04T12:22:14.501Z,10.80
2018-11-04T12:24:43.375Z,10.80
2018-11-04T12:27:12.286Z,10.80
2018-11-04T12:29:41.140Z,10.80
2018-11-04T12:32:10.220Z,10.90
2018-11-04T12:34:40.248Z,10.90
2018-11-04T12:37:09.202Z,10.90
2018-11-04T12:39:38.044Z,10.90
2018-11-04T12:42:06.959Z,10.90
2018-11-04T12:44:35.987Z,11.00
2018-11-04T12:47:07.152Z,11.00
2018-11-04T12:49:36.004Z,11.10
2018-11-04T12:52:05.183Z,11.20
2018-11-04T12:54:34.258Z,11.30
2018-11-04T12:57:03.171Z,11.30
2018-11-04T12:59:32.782Z,11.20
2018-11-04T13:02:01.643Z,11.20
2018-11-04T13:04:30.655Z,11.20
2018-11-04T13:06:59.749Z,11.30
2018-11-04T13:09:28.784Z,11.40
2018-11-04T13:11:57.741Z,11.50
2018-11-04T13:14:26.780Z,11.40
2018-11-04T13:16:55.764Z,11.30
2018-11-04T13:19:24.999Z,11.20
2018-11-04T13:21:54.216Z,11.30
2018-11-04T13:24:23.103Z,11.30
2018-11-04T13:26:52.861Z,11.30
2018-11-04T13:29:22.091Z,11.20
2018-11-04T13:31:50.887Z,11.00
2018-11-04T13:34:20.283Z,11.00
2018-11-04T13:36:49.189Z,11.10
2018-11-04T13:39:18.077Z,11.00
2018-11-04T13:41:47.035Z,10.90
2018-11-04T13:44:15.941Z,10.90
2018-11-04T13:46:45.047Z,10.80
2018-11-04T13:49:14.208Z,10.70
2018-11-04T13:51:43.068Z,10.80
2018-11-04T13:54:12.259Z,10.70
2018-11-04T13:56:41.465Z,10.60
2018-11-04T13:59:11.751Z,10.60
2018-11-04T14:01:41.745Z,10.60
2018-11-04T14:04:11.770Z,10.50
2018-11-04T14:06:41.486Z,10.40
2018-11-04T14:09:10.959Z,10.50
2018-11-04T14:11:41.047Z,10.50
2018-11-04T14:14:10.456Z,10.50
2018-11-04T14:16:39.829Z,10.50
2018-11-04T14:19:08.707Z,10.50
2018-11-04T14:21:38.126Z,10.40
2018-11-04T14:24:06.942Z,10.40
2018-11-04T14:26:39.632Z,10.20
2018-11-04T14:29:08.841Z,10.10
2018-11-04T14:31:37.656Z,10.10
2018-11-04T14:34:06.741Z,10.10
2018-11-04T14:36:35.585Z,10.00
2018-11-04T14:39:05.740Z,10.00
2018-11-04T14:41:34.864Z,10.00
2018-11-04T14:44:03.677Z,10.10
2018-11-04T14:46:32.694Z,10.10
2018-11-04T14:49:01.673Z,10.10
2018-11-04T14:51:30.549Z,10.10
2018-11-04T14:53:59.700Z,10.00
2018-11-04T14:56:29.539Z,9.90
2018-11-04T14:58:58.850Z,9.90
2018-11-04T15:01:28.084Z,10.00
2018-11-04T15:03:58.223Z,10.00
2018-11-04T15:06:29.070Z,10.10
2018-11-04T15:08:58.979Z,10.00
2018-11-04T15:11:28.103Z,10.10
2018-11-04T15:13:57.211Z,10.10
2018-11-04T15:16:26.437Z,10.10
2018-11-04T15:18:55.384Z,10.10
2018-11-04T15:21:24.802Z,10.10
2018-11-04T15:23:55.434Z,10.10
2018-11-04T15:26:25.089Z,10.00
2018-11-04T15:28:55.854Z,10.10
2018-11-04T15:31:24.997Z,10.10
2018-11-04T15:33:55.112Z,10.10
2018-11-04T15:36:25.155Z,10.10
2018-11-04T15:38:54.084Z,10.10
2018-11-04T15:41:22.987Z,10.10
2018-11-04T15:43:52.608Z,10.00
2018-11-04T15:46:26.177Z,10.10
2018-11-04T15:48:57.222Z,10.00
2018-11-04T15:51:27.213Z,10.00
2018-11-04T15:53:56.979Z,9.90
2018-11-04T15:56:28.027Z,9.90
2018-11-04T15:58:57.887Z,9.90
2018-11-04T16:01:27.843Z,9.90
2018-11-04T16:03:57.515Z,10.00
2018-11-04T16:06:27.017Z,10.00
2018-11-04T16:08:56.544Z,10.00
2018-11-04T16:11:27.274Z,10.00
2018-11-04T16:13:57.433Z,10.00
2018-11-04T16:16:26.319Z,9.90
2018-11-04T16:18:55.900Z,9.90
2018-11-04T16:21:28.720Z,9.90
2018-11-04T16:23:58.306Z,9.90
2018-11-04T16:26:28.469Z,9.90
2018-11-04T16:28:59.310Z,9.80
2018-11-04T16:31:28.949Z,9.80
2018-11-04T16:33:58.473Z,9.80
2018-11-04T16:36:28.238Z,9.80
2018-11-04T16:39:00.378Z,9.80
2018-11-04T16:41:30.022Z,9.80
2018-11-04T16:43:59.656Z,9.80
2018-11-04T16:46:29.103Z,9.80
2018-11-04T16:48:58.636Z,9.80
2018-11-04T16:51:28.605Z,9.80
2018-11-04T16:53:58.984Z,9.80
2018-11-04T16:56:29.229Z,9.80
2018-11-04T16:58:59.803Z,9.90
2018-11-04T17:01:30.304Z,9.80
2018-11-04T17:03:59.984Z,9.80
2018-11-04T17:06:29.861Z,9.90
2018-11-04T17:08:59.881Z,9.80
2018-11-04T17:11:29.809Z,9.80
2018-11-04T17:13:58.624Z,9.80
2018-11-04T17:16:27.805Z,9.70
2018-11-04T17:18:56.620Z,9.70
2018-11-04T17:21:26.819Z,9.80
2018-11-04T17:23:56.239Z,9.80
2018-11-04T17:26:28.477Z,9.80
2018-11-04T17:28:57.980Z,9.80
2018-11-04T17:31:29.537Z,9.70
2018-11-04T17:34:03.055Z,9.80
2018-11-04T17:36:32.048Z,9.70
2018-11-04T17:39:00.921Z,9.80
2018-11-04T17:41:29.733Z,9.70
2018-11-04T17:43:58.615Z,9.80
2018-11-04T17:46:27.581Z,9.80
2018-11-04T17:48:56.552Z,9.80
2018-11-04T17:51:25.392Z,9.80
2018-11-04T17:53:54.333Z,9.80
2018-11-04T17:56:23.242Z,9.80
2018-11-04T17:58:52.072Z,9.80
2018-11-04T18:01:21.015Z,9.80
2018-11-04T18:03:49.826Z,9.80
2018-11-04T18:06:18.734Z,9.80
2018-11-04T18:08:47.710Z,9.80
2018-11-04T18:11:16.725Z,9.70
2018-11-04T18:13:45.752Z,9.70
2018-11-04T18:16:14.730Z,9.70
2018-11-04T18:18:44.170Z,9.70
2018-11-04T18:21:13.472Z,9.70
2018-11-04T18:23:42.799Z,9.70
2018-11-04T18:26:11.720Z,9.80
2018-11-04T18:28:40.665Z,9.70
2018-11-04T18:31:09.546Z,9.70
2018-11-04T18:33:38.444Z,9.70
2018-11-04T18:36:07.382Z,9.70
2018-11-04T18:38:36.185Z,9.70
2018-11-04T18:41:05.131Z,9.70
2018-11-04T18:43:34.161Z,9.70
2018-11-04T18:46:03.037Z,9.70
2018-11-04T18:48:32.090Z,9.60
2018-11-04T18:51:00.891Z,9.60
2018-11-04T18:53:29.853Z,9.60
2018-11-04T18:55:59.041Z,9.60
2018-11-04T18:58:28.081Z,9.60
2018-11-04T19:00:56.913Z,9.50
2018-11-04T19:03:25.756Z,9.40
2018-11-04T19:05:54.694Z,9.40
2018-11-04T19:08:23.590Z,9.50
2018-11-04T19:10:52.649Z,9.50
2018-11-04T19:13:21.553Z,9.40
2018-11-04T19:15:50.825Z,9.40
2018-11-04T19:18:20.325Z,9.40
2018-11-04T19:20:49.331Z,9.40
2018-11-04T19:23:19.064Z,9.40
2018-11-04T19:25:48.079Z,9.40
2018-11-04T19:28:16.960Z,9.40
2018-11-04T19:30:49.963Z,9.40
2018-11-04T19:33:18.808Z,9.40
2018-11-04T19:35:47.869Z,9.40
2018-11-04T19:38:16.954Z,9.30
2018-11-04T19:40:46.631Z,9.40
2018-11-04T19:43:16.782Z,9.40
2018-11-04T19:45:46.263Z,9.40
2018-11-04T19:48:15.936Z,9.40
2018-11-04T19:50:44.936Z,9.40
2018-11-04T19:53:15.401Z,9.40
2018-11-04T19:55:45.133Z,9.40
2018-11-04T19:58:14.420Z,9.40
2018-11-04T20:00:43.990Z,9.50
2018-11-04T20:03:13.281Z,9.50
2018-11-04T20:05:42.334Z,9.50
2018-11-04T20:08:11.485Z,9.50
2018-11-04T20:10:40.460Z,9.50
2018-11-04T20:13:14.859Z,9.40
2018-11-04T20:15:43.941Z,9.50
2018-11-04T20:18:18.271Z,9.50
2018-11-04T20:20:49.607Z,9.50
2018-11-04T20:23:18.921Z,9.40
2018-11-04T20:25:53.647Z,9.40
2018-11-04T20:28:22.925Z,9.30
2018-11-04T20:30:52.147Z,9.30
2018-11-04T20:33:21.112Z,9.20
2018-11-04T20:35:50.529Z,9.20
2018-11-04T20:38:23.732Z,9.20
2018-11-04T20:40:58.324Z,9.10
2018-11-04T20:43:27.744Z,9.10
2018-11-04T20:45:57.292Z,9.10
2018-11-04T20:48:31.804Z,9.10
2018-11-04T20:51:03.651Z,9.00
2018-11-04T20:53:39.344Z,9.00
2018-11-04T20:56:13.675Z,8.90
2018-11-04T20:58:43.142Z,8.80
2018-11-04T21:01:12.496Z,8.70
2018-11-04T21:03:42.257Z,8.70
2018-11-04T21:06:11.703Z,8.60
2018-11-04T21:08:41.094Z,8.60
2018-11-04T21:11:10.017Z,8.60
2018-11-04T21:13:39.023Z,8.70
2018-11-04T21:16:08.073Z,8.70
2018-11-04T21:18:37.169Z,8.60
2018-11-04T21:21:06.324Z,8.60
2018-11-04T21:23:35.986Z,8.50
2018-11-04T21:26:04.917Z,8.50
2018-11-04T21:28:34.142Z,8.50
2018-11-04T21:31:03.208Z,8.40
2018-11-04T21:33:32.332Z,8.40
2018-11-04T21:36:01.353Z,8.40
2018-11-04T21:38:30.587Z,8.30
2018-11-04T21:40:59.851Z,8.30
2018-11-04T21:43:29.149Z,8.20
2018-11-04T21:45:58.161Z,8.30
2018-11-04T21:48:27.229Z,8.30
2018-11-04T21:50:56.270Z,8.30
2018-11-04T21:53:25.385Z,8.30
2018-11-04T21:55:54.631Z,8.40
2018-11-04T21:58:23.665Z,8.30
2018-11-04T22:00:52.667Z,8.30
2018-11-04T22:03:21.666Z,8.30
2018-11-04T22:05:50.532Z,8.30
2018-11-04T22:08:19.684Z,8.30
2018-11-04T22:10:49.115Z,8.30
2018-11-04T22:13:18.047Z,8.30
2018-11-04T22:15:47.652Z,8.20
2018-11-04T22:18:16.622Z,8.20
2018-11-04T22:20:45.633Z,8.20
2018-11-04T22:23:14.915Z,8.10
2018-11-04T22:25:43.907Z,8.20
2018-11-04T22:28:13.244Z,8.20
2018-11-04T22:30:42.438Z,8.20
2018-11-04T22:33:11.370Z,8.20
2018-11-04T22:35:40.453Z,8.20
2018-11-04T22:38:09.790Z,8.00
2018-11-04T22:40:38.886Z,8.00
2018-11-04T22:43:08.009Z,8.10
2018-11-04T22:45:37.010Z,8.00
2018-11-04T22:48:06.559Z,8.00
2018-11-04T22:50:35.392Z,8.00
2018-11-04T22:53:04.574Z,8.10
2018-11-04T22:55:33.391Z,8.20
2018-11-04T22:58:06.096Z,8.20
2018-11-04T23:00:40.347Z,8.20
2018-11-04T23:03:09.450Z,8.10
2018-11-04T23:05:38.294Z,8.20
2018-11-04T23:08:07.670Z,8.20
2018-11-04T23:10:36.723Z,8.20
2018-11-04T23:13:05.733Z,8.20
2018-11-04T23:15:34.582Z,8.20
2018-11-04T23:18:03.527Z,8.10
2018-11-04T23:20:32.367Z,8.10
2018-11-04T23:23:01.260Z,7.90
2018-11-04T23:25:30.188Z,7.90
2018-11-04T23:27:58.984Z,7.90
2018-11-04T23:30:27.837Z,7.90
2018-11-04T23:32:56.669Z,7.90
2018-11-04T23:35:25.572Z,8.00
2018-11-04T23:37:54.422Z,8.00
2018-11-04T23:40:23.443Z,8.10
2018-11-04T23:42:52.253Z,8.00
2018-11-04T23:45:21.167Z,8.00
2018-11-04T23:47:50.043Z,7.90
2018-11-04T23:50:18.880Z,7.90
2018-11-04T23:52:47.782Z,8.00
2018-11-04T23:55:16.704Z,8.00
2018-11-04T23:57:45.626Z,8.00
